createdAt,value
2022-10-02T00:06:58.000Z,0.24
2022-10-02T00:37:03.304Z,0.24
2022-10-02T01:07:08.000Z,0.24
2022-10-02T01:37:12.000Z,0.24
2022-10-02T02:07:20.000Z,0.24
2022-10-02T02:37:22.000Z,0.24
2022-10-02T03:07:30.000Z,0.24
2022-10-02T03:37:32.000Z,0.24
2022-10-02T04:07:34.413Z,0.24
2022-10-02T04:37:39.000Z,0.24
2022-10-02T05:07:48.205Z,0.24
2022-10-02T05:37:58.231Z,0.24
2022-10-02T06:08:03.245Z,0.24
2022-10-02T06:38:04.450Z,0.24
2022-10-02T07:08:07.198Z,0.24
2022-10-02T07:38:13.318Z,0.24
2022-10-02T08:08:16.421Z,0.24
2022-10-02T08:38:26.622Z,0.24
2022-10-02T09:08:28.390Z,0.24
2022-10-02T09:38:30.390Z,0.24
2022-10-02T10:08:35.353Z,0.24
2022-10-02T10:38:43.456Z,0.24
2022-10-02T11:08:53.467Z,0.24
2022-10-02T11:38:54.492Z,0
2022-10-02T12:08:55.492Z,0.08
2022-10-02T12:38:58.472Z,0.4
2022-10-02T13:09:01.549Z,0.56
2022-10-02T13:39:03.681Z,0.56
2022-10-02T14:09:04.605Z,0.64
2022-10-02T14:39:06.599Z,0.8
2022-10-02T15:09:12.762Z,0.8
2022-10-02T15:39:17.620Z,0.8
2022-10-02T16:09:19.735Z,0.8
2022-10-02T16:39:25.448Z,0.8
2022-10-02T17:09:31.340Z,1.12
2022-10-02T17:39:33.467Z,2.24
2022-10-02T18:09:36.579Z,2.32
2022-10-02T18:39:39.567Z,2.56
2022-10-02T19:09:43.378Z,2.88
2022-10-02T19:39:44.464Z,3.04
2022-10-02T20:09:46.476Z,3.12
2022-10-02T20:39:53.450Z,3.12
2022-10-02T21:09:56.575Z,3.12
2022-10-02T21:39:58.548Z,3.12
2022-10-02T22:10:01.717Z,3.12
2022-10-02T22:40:10.898Z,3.12
2022-10-02T23:10:14.956Z,3.12
2022-10-02T23:40:16.956Z,3.12
